Time;durP1;ratioP1;P1;durP2;ratioP2;P2;SDS_P1;SDS_P2;PMS_P1;PMS_P2;Temp;Humidity;BMP_temperature;BMP_pressure;BME280_temperature;BME280_humidity;BME280_pressure;Samples;Min_cycle;Max_cycle;Signal;HPM_P1;HPM_P2
2023/11/19 00:02:22;;;;;;;21.25;17.65;;;13.60;99.90;;;;;;5068290;28;20075;-76
2023/11/19 00:04:48;;;;;;;23.13;17.42;;;13.60;99.90;;;;;;5068006;28;20029;-77
2023/11/19 00:07:14;;;;;;;18.45;14.95;;;13.60;99.90;;;;;;5054442;28;20039;-76
2023/11/19 00:09:40;;;;;;;22.70;17.45;;;13.60;99.90;;;;;;5068109;28;20024;-76
2023/11/19 00:12:07;;;;;;;21.25;16.65;;;13.60;99.90;;;;;;5067885;28;20024;-76
2023/11/19 00:14:34;;;;;;;20.00;15.57;;;13.70;99.90;;;;;;5068057;28;20099;-76
2023/11/19 00:17:00;;;;;;;19.83;15.02;;;13.70;99.90;;;;;;5050105;28;20032;-76
2023/11/19 00:19:26;;;;;;;19.92;14.68;;;13.70;99.90;;;;;;5067934;28;20024;-76
2023/11/19 00:21:52;;;;;;;21.00;14.55;;;13.70;99.90;;;;;;5068315;28;20032;-76
2023/11/19 00:24:18;;;;;;;17.58;14.55;;;13.70;99.90;;;;;;5067991;28;20043;-76
2023/11/19 00:26:43;;;;;;;18.63;14.18;;;13.70;99.90;;;;;;5057746;28;20482;-76
2023/11/19 00:29:10;;;;;;;19.30;13.27;;;13.70;99.90;;;;;;5050029;28;20390;-77
2023/11/19 00:31:35;;;;;;;19.50;13.45;;;13.80;99.90;;;;;;5067834;28;20041;-76
2023/11/19 00:34:02;;;;;;;18.83;13.02;;;13.70;99.90;;;;;;5067803;28;20035;-75
2023/11/19 00:36:28;;;;;;;18.88;12.35;;;13.70;99.90;;;;;;5067599;28;20048;-76
2023/11/19 00:38:54;;;;;;;17.35;11.45;;;13.80;99.90;;;;;;5067760;28;20059;-76
2023/11/19 00:41:20;;;;;;;23.35;12.18;;;13.80;99.90;;;;;;5049167;28;20021;-76
2023/11/19 00:43:46;;;;;;;14.85;9.90;;;13.80;99.90;;;;;;5066464;28;20027;-76
2023/11/19 00:46:13;;;;;;;21.98;10.32;;;13.80;99.90;;;;;;5067300;28;20017;-76
2023/11/19 00:48:39;;;;;;;21.88;9.63;;;13.80;99.90;;;;;;5067271;28;20020;-77
2023/11/19 00:51:05;;;;;;;17.65;10.02;;;13.80;99.90;;;;;;5067343;28;20017;-77
2023/11/19 00:53:33;;;;;;;21.85;8.82;;;13.80;99.90;;;;;;5067387;28;20021;-76
2023/11/19 00:55:59;;;;;;;18.33;8.90;;;13.80;99.90;;;;;;5067282;28;20017;-77
2023/11/19 00:58:25;;;;;;;17.73;8.25;;;13.90;99.90;;;;;;5059819;28;20025;-76
2023/11/19 01:00:51;;;;;;;19.80;8.07;;;13.90;99.90;;;;;;5059613;28;20731;-77
2023/11/19 01:03:16;;;;;;;19.30;7.95;;;13.90;99.90;;;;;;5067024;28;20094;-76
2023/11/19 01:05:43;;;;;;;18.02;7.82;;;13.90;99.90;;;;;;5066747;28;20016;-77
2023/11/19 01:08:09;;;;;;;23.17;8.02;;;13.90;99.90;;;;;;5067569;28;20452;-76
2023/11/19 01:10:37;;;;;;;22.52;7.47;;;13.90;99.90;;;;;;5066485;28;20100;-77
2023/11/19 01:13:05;;;;;;;22.42;7.00;;;13.90;99.90;;;;;;5067407;28;20389;-76
2023/11/19 01:15:31;;;;;;;20.30;7.15;;;13.90;99.90;;;;;;5066917;28;20382;-76
2023/11/19 01:17:57;;;;;;;18.83;6.30;;;13.90;99.90;;;;;;5067205;28;20028;-76
2023/11/19 01:20:23;;;;;;;22.48;6.13;;;13.90;99.90;;;;;;5066840;28;20052;-77
2023/11/19 01:22:57;;;;;;;17.92;6.00;;;13.90;99.90;;;;;;5048837;28;20028;-76
2023/11/19 01:25:23;;;;;;;21.38;6.80;;;13.90;99.90;;;;;;5065710;28;20048;-77
2023/11/19 01:27:49;;;;;;;20.75;5.60;;;13.90;99.90;;;;;;5067389;28;20048;-77
2023/11/19 01:30:15;;;;;;;24.77;5.85;;;13.90;99.90;;;;;;5048801;28;20020;-78
2023/11/19 01:32:41;;;;;;;19.20;6.05;;;13.90;99.90;;;;;;5067049;28;20603;-77
2023/11/19 01:35:07;;;;;;;21.85;5.32;;;13.90;99.90;;;;;;5048530;28;20107;-77
2023/11/19 01:37:35;;;;;;;27.90;6.13;;;13.90;99.90;;;;;;5074123;28;20107;-77
2023/11/19 01:40:02;;;;;;;18.65;4.75;;;14.00;99.90;;;;;;5066437;28;20040;-77
2023/11/19 01:42:28;;;;;;;22.48;6.10;;;14.00;99.90;;;;;;5054521;28;20033;-77
2023/11/19 01:45:01;;;;;;;27.80;6.32;;;14.00;99.90;;;;;;5078680;28;20523;-77
2023/11/19 01:47:30;;;;;;;23.15;5.40;;;14.00;99.90;;;;;;5081164;28;20088;-77
2023/11/19 01:49:57;;;;;;;23.25;5.05;;;13.90;99.90;;;;;;5060832;28;20099;-76
2023/11/19 01:52:23;;;;;;;26.92;6.28;;;14.00;99.90;;;;;;5080433;28;20047;-78
2023/11/19 01:54:50;;;;;;;27.77;4.90;;;13.90;99.90;;;;;;5072555;28;20023;-77
2023/11/19 01:57:16;;;;;;;27.42;6.03;;;13.90;99.90;;;;;;5074822;28;20032;-77
2023/11/19 01:59:42;;;;;;;24.98;5.13;;;14.00;99.90;;;;;;5055826;28;20028;-76
2023/11/19 02:02:08;;;;;;;25.73;4.93;;;13.90;99.90;;;;;;5076886;28;20424;-76
2023/11/19 02:04:34;;;;;;;27.42;5.75;;;14.00;99.90;;;;;;5080909;28;20020;-77
2023/11/19 02:07:00;;;;;;;28.45;4.85;;;13.90;99.90;;;;;;5080595;28;20745;-77
2023/11/19 02:09:26;;;;;;;29.15;5.78;;;14.00;99.90;;;;;;5076608;28;20024;-77
2023/11/19 02:11:53;;;;;;;18.67;4.30;;;14.00;99.90;;;;;;5054030;28;20485;-77
2023/11/19 02:14:25;;;;;;;30.08;5.82;;;13.90;99.90;;;;;;5081256;28;20028;-77
2023/11/19 02:16:51;;;;;;;24.23;5.53;;;14.00;99.90;;;;;;5054194;28;20035;-78
2023/11/19 02:19:19;;;;;;;31.45;5.93;;;14.00;99.90;;;;;;5080864;28;20017;-78
2023/11/19 02:21:45;;;;;;;32.72;5.68;;;13.90;99.90;;;;;;5081721;28;20136;-78
2023/11/19 02:24:14;;;;;;;23.85;5.05;;;13.90;99.90;;;;;;5054465;28;20107;-78
2023/11/19 02:27:05;;;;;;;28.40;4.63;;;14.00;99.90;;;;;;5077058;28;20031;-78
2023/11/19 02:29:31;;;;;;;25.50;4.43;;;13.90;99.90;;;;;;5064986;28;20115;-78
2023/11/19 02:31:56;;;;;;;26.85;4.65;;;13.90;99.90;;;;;;5056960;28;20119;-78
2023/11/19 02:34:22;;;;;;;29.88;5.10;;;13.90;99.90;;;;;;5080270;28;20102;-79
2023/11/19 02:36:48;;;;;;;25.25;4.85;;;13.90;99.90;;;;;;5080480;28;20047;-77
2023/11/19 02:39:14;;;;;;;27.52;6.78;;;13.90;99.90;;;;;;5075967;28;20024;-78
2023/11/19 02:41:39;;;;;;;25.38;4.85;;;13.90;99.90;;;;;;5080149;28;20035;-77
2023/11/19 02:44:06;;;;;;;23.65;4.28;;;13.90;99.90;;;;;;5084348;28;20020;-78
2023/11/19 02:46:32;;;;;;;27.00;5.05;;;13.90;99.90;;;;;;5077337;28;20103;-77
2023/11/19 02:48:58;;;;;;;27.02;4.57;;;13.90;99.90;;;;;;5076542;28;20170;-78
2023/11/19 02:51:24;;;;;;;27.88;5.35;;;13.90;99.90;;;;;;5083897;28;20021;-77
2023/11/19 02:53:49;;;;;;;26.83;4.72;;;13.80;99.90;;;;;;5081749;28;20024;-78
2023/11/19 02:56:20;;;;;;;29.10;6.00;;;13.80;99.90;;;;;;5075769;28;20027;-78
2023/11/19 02:58:46;;;;;;;34.13;4.95;;;13.80;99.90;;;;;;5063195;28;20028;-77
2023/11/19 03:01:23;;;;;;;33.35;5.65;;;13.80;99.90;;;;;;5079548;28;20080;-77
2023/11/19 03:03:54;;;;;;;23.83;5.30;;;13.80;99.90;;;;;;5079499;28;20016;-77
2023/11/19 03:06:21;;;;;;;40.88;5.85;;;13.70;99.90;;;;;;5085562;28;20020;-78
2023/11/19 03:08:47;;;;;;;45.78;7.22;;;13.70;99.90;;;;;;5075789;28;20031;-76
2023/11/19 03:11:13;;;;;;;29.40;6.03;;;13.70;99.90;;;;;;5060380;28;20028;-77
2023/11/19 03:13:39;;;;;;;36.13;6.57;;;13.70;99.90;;;;;;5083601;28;20508;-77
2023/11/19 03:16:05;;;;;;;36.67;6.45;;;13.60;99.90;;;;;;5056649;28;20075;-77
2023/11/19 03:18:31;;;;;;;39.88;6.38;;;13.60;99.90;;;;;;5070153;28;20559;-77
2023/11/19 03:20:58;;;;;;;37.97;6.10;;;13.60;99.90;;;;;;5082228;28;20036;-77
2023/11/19 03:23:24;;;;;;;35.30;6.05;;;13.60;99.90;;;;;;5051173;28;20033;-78
2023/11/19 03:25:50;;;;;;;36.25;5.68;;;13.60;99.90;;;;;;5065030;28;20107;-76
2023/11/19 03:28:16;;;;;;;37.58;6.97;;;13.60;99.90;;;;;;5080573;28;20103;-77
2023/11/19 03:30:42;;;;;;;43.28;6.70;;;13.50;99.90;;;;;;5074857;28;20473;-77
2023/11/19 03:33:07;;;;;;;41.15;7.38;;;13.50;99.90;;;;;;5089619;28;20071;-78
2023/11/19 03:35:33;;;;;;;37.20;6.85;;;13.50;99.90;;;;;;5074618;28;20504;-77
2023/11/19 03:38:01;;;;;;;43.97;6.60;;;13.50;99.90;;;;;;5063784;28;20045;-78
2023/11/19 03:40:26;;;;;;;35.13;5.90;;;13.40;99.90;;;;;;5063882;28;20024;-77
2023/11/19 03:42:52;;;;;;;50.15;7.07;;;13.40;99.90;;;;;;5083979;28;20031;-78
2023/11/19 03:45:18;;;;;;;35.80;5.72;;;13.30;99.90;;;;;;5067479;28;20111;-77
2023/11/19 03:47:43;;;;;;;44.20;8.25;;;13.30;99.90;;;;;;5067805;28;20508;-77
2023/11/19 03:50:09;;;;;;;37.97;6.00;;;13.30;99.90;;;;;;5077912;28;20433;-77
2023/11/19 03:52:35;;;;;;;32.95;6.00;;;13.30;99.90;;;;;;5074579;28;20108;-77
2023/11/19 03:55:01;;;;;;;45.30;6.38;;;13.20;99.90;;;;;;5081459;28;20024;-77
2023/11/19 03:57:27;;;;;;;45.13;7.47;;;13.10;99.90;;;;;;5076702;28;20036;-77
2023/11/19 03:59:54;;;;;;;36.50;6.80;;;13.10;99.90;;;;;;5059496;28;20017;-77
2023/11/19 04:02:20;;;;;;;41.75;7.07;;;13.10;99.90;;;;;;5076909;28;20120;-77
2023/11/19 04:04:45;;;;;;;36.92;8.30;;;13.00;99.90;;;;;;5083016;28;20120;-78
2023/11/19 04:07:11;;;;;;;35.92;6.35;;;13.00;99.90;;;;;;5055948;28;20020;-77
2023/11/19 04:09:40;;;;;;;54.03;7.45;;;12.90;99.90;;;;;;5076908;28;20127;-78
2023/11/19 04:12:06;;;;;;;38.35;6.88;;;12.90;99.90;;;;;;5082438;28;20016;-77
2023/11/19 04:14:32;;;;;;;33.28;6.40;;;12.90;99.90;;;;;;5068170;28;20048;-77
2023/11/19 04:16:57;;;;;;;36.47;6.60;;;12.90;99.90;;;;;;5082310;28;20105;-78
2023/11/19 04:19:24;;;;;;;41.35;7.43;;;12.80;99.90;;;;;;5050334;28;20107;-77
2023/11/19 04:21:50;;;;;;;39.80;7.85;;;12.80;99.90;;;;;;5082106;28;20023;-77
2023/11/19 04:24:15;;;;;;;43.15;7.03;;;12.80;99.90;;;;;;5074890;28;20142;-77
2023/11/19 04:26:45;;;;;;;47.13;7.75;;;12.70;99.90;;;;;;5075828;28;20452;-77
2023/11/19 04:29:15;;;;;;;40.13;7.07;;;12.70;99.90;;;;;;5055099;28;20018;-77
2023/11/19 04:31:41;;;;;;;36.30;6.20;;;12.70;99.90;;;;;;5058532;28;20327;-76
2023/11/19 04:34:07;;;;;;;35.78;6.10;;;12.70;99.90;;;;;;5071769;28;20492;-77
2023/11/19 04:36:34;;;;;;;35.22;6.43;;;12.70;99.90;;;;;;5078146;28;20024;-78
2023/11/19 04:39:00;;;;;;;45.40;7.45;;;12.70;99.90;;;;;;5050035;28;20035;-78
2023/11/19 04:41:27;;;;;;;39.25;6.38;;;12.70;99.90;;;;;;5074978;28;20115;-77
2023/11/19 04:43:54;;;;;;;35.53;6.18;;;12.60;99.90;;;;;;5056413;28;20104;-78
2023/11/19 04:46:19;;;;;;;35.90;7.13;;;12.60;99.90;;;;;;5049349;28;20043;-77
2023/11/19 04:48:45;;;;;;;41.20;7.93;;;12.60;99.90;;;;;;5061373;28;20485;-77
2023/11/19 04:51:11;;;;;;;41.40;6.90;;;12.60;99.90;;;;;;5073106;28;20024;-77
2023/11/19 04:53:36;;;;;;;39.63;6.50;;;12.60;99.90;;;;;;5078101;28;20036;-77
2023/11/19 04:56:09;;;;;;;38.58;7.45;;;12.50;99.90;;;;;;5081652;28;20477;-78
2023/11/19 04:58:35;;;;;;;39.10;6.63;;;12.50;99.90;;;;;;5075852;28;20040;-77
2023/11/19 05:01:01;;;;;;;41.28;6.43;;;12.50;99.90;;;;;;5072874;28;20024;-77
2023/11/19 05:03:27;;;;;;;38.90;7.43;;;12.50;99.90;;;;;;5081008;28;20033;-78
2023/11/19 05:05:53;;;;;;;47.80;7.88;;;12.50;99.90;;;;;;5070589;28;20027;-77
2023/11/19 05:08:19;;;;;;;46.00;6.97;;;12.50;99.90;;;;;;5081717;28;20209;-77
2023/11/19 05:10:45;;;;;;;44.45;6.53;;;12.50;99.90;;;;;;5066936;28;20512;-77
2023/11/19 05:13:10;;;;;;;36.85;6.75;;;12.50;99.90;;;;;;5080428;28;20600;-77
2023/11/19 05:15:36;;;;;;;47.47;8.48;;;12.40;99.90;;;;;;5072919;28;20034;-77
2023/11/19 05:18:02;;;;;;;34.83;6.15;;;12.40;99.90;;;;;;5058278;28;20027;-77
2023/11/19 05:20:27;;;;;;;46.80;7.20;;;12.40;99.90;;;;;;5081025;28;20032;-77
2023/11/19 05:22:53;;;;;;;39.20;6.70;;;12.40;99.90;;;;;;5076169;28;20217;-77
2023/11/19 05:25:20;;;;;;;53.15;7.75;;;12.40;99.90;;;;;;5072687;28;20025;-77
2023/11/19 05:27:46;;;;;;;32.35;5.88;;;12.40;99.90;;;;;;5051087;28;20044;-77
2023/11/19 05:30:11;;;;;;;45.20;6.18;;;12.40;99.90;;;;;;5080389;28;20016;-77
2023/11/19 05:32:37;;;;;;;31.85;5.07;;;12.40;99.90;;;;;;5049529;28;20024;-76
2023/11/19 05:35:03;;;;;;;37.72;7.03;;;12.40;99.90;;;;;;5077686;28;20050;-77
2023/11/19 05:37:29;;;;;;;45.00;7.65;;;12.40;99.90;;;;;;5058403;28;20557;-77
2023/11/19 05:39:54;;;;;;;36.28;7.30;;;12.40;99.90;;;;;;5066676;28;20107;-78
2023/11/19 05:42:20;;;;;;;40.22;6.50;;;12.40;99.90;;;;;;5066301;28;20067;-78
2023/11/19 05:44:46;;;;;;;38.80;6.35;;;12.50;99.90;;;;;;5066594;28;20017;-79
2023/11/19 05:47:11;;;;;;;41.83;7.53;;;12.40;99.90;;;;;;5066213;28;20074;-77
2023/11/19 05:49:37;;;;;;;43.65;7.53;;;12.50;99.90;;;;;;5066106;28;20013;-77
2023/11/19 05:52:03;;;;;;;44.83;7.47;;;12.50;99.90;;;;;;5066252;28;20059;-77
2023/11/19 05:54:29;;;;;;;37.95;6.70;;;12.50;99.90;;;;;;5066288;28;20033;-76
2023/11/19 05:56:55;;;;;;;40.33;7.15;;;12.50;99.90;;;;;;5066328;28;20032;-76
2023/11/19 05:59:22;;;;;;;42.85;7.28;;;12.50;99.90;;;;;;5052529;28;20025;-76
2023/11/19 06:01:48;;;;;;;46.38;8.25;;;12.50;99.90;;;;;;5066142;28;20453;-76
2023/11/19 06:04:14;;;;;;;44.47;7.20;;;12.50;99.90;;;;;;5048605;28;20108;-77
2023/11/19 06:06:40;;;;;;;48.40;8.13;;;12.50;99.90;;;;;;5065501;28;20029;-76
2023/11/19 06:09:06;;;;;;;36.25;7.28;;;12.40;99.90;;;;;;5066494;28;20055;-77
2023/11/19 06:11:33;;;;;;;49.00;7.35;;;12.40;99.90;;;;;;5068623;28;20052;-76
2023/11/19 06:13:59;;;;;;;42.28;7.82;;;12.40;99.90;;;;;;5070578;28;20032;-77
2023/11/19 06:16:25;;;;;;;40.92;7.00;;;12.40;99.90;;;;;;5070207;28;20028;-77
2023/11/19 06:18:50;;;;;;;44.40;7.80;;;12.40;99.90;;;;;;5066557;28;20107;-77
2023/11/19 06:21:16;;;;;;;44.20;7.88;;;12.30;99.90;;;;;;5069927;28;20052;-76
2023/11/19 06:23:42;;;;;;;43.30;7.63;;;12.30;99.90;;;;;;5070341;28;20487;-76
2023/11/19 06:26:08;;;;;;;45.35;7.28;;;12.30;99.90;;;;;;5070128;28;20021;-76
2023/11/19 06:28:34;;;;;;;42.35;6.88;;;12.30;99.90;;;;;;5070223;28;20052;-77
2023/11/19 06:31:00;;;;;;;50.70;8.38;;;12.30;99.90;;;;;;5070067;28;20051;-76
2023/11/19 06:33:26;;;;;;;51.33;8.75;;;12.30;99.90;;;;;;5070137;28;20020;-76
2023/11/19 06:35:54;;;;;;;46.17;7.28;;;12.20;99.90;;;;;;5084068;28;20656;-76
2023/11/19 06:38:20;;;;;;;34.47;6.65;;;12.20;99.90;;;;;;5052791;28;20403;-77
2023/11/19 06:40:46;;;;;;;40.83;7.05;;;12.20;99.90;;;;;;5049607;28;20032;-76
2023/11/19 06:43:11;;;;;;;42.65;6.90;;;12.20;99.90;;;;;;5032178;28;20031;-75
2023/11/19 06:45:37;;;;;;;43.00;6.65;;;12.20;99.90;;;;;;5049406;28;20108;-77
2023/11/19 06:48:05;;;;;;;35.72;7.43;;;12.20;99.90;;;;;;5049900;28;20120;-77
2023/11/19 06:50:32;;;;;;;40.20;6.63;;;12.20;99.90;;;;;;5049749;28;20075;-77
2023/11/19 06:52:58;;;;;;;39.90;7.22;;;12.20;99.90;;;;;;5049884;28;20013;-75
2023/11/19 06:55:23;;;;;;;49.22;7.60;;;12.20;99.90;;;;;;5044342;28;20021;-77
2023/11/19 06:57:49;;;;;;;38.97;7.05;;;12.20;99.90;;;;;;5045999;28;20017;-77
2023/11/19 07:00:15;;;;;;;53.20;7.68;;;12.20;99.90;;;;;;5049522;28;20024;-76
2023/11/19 07:02:41;;;;;;;47.08;7.35;;;12.20;99.90;;;;;;5049279;28;20056;-76
2023/11/19 07:05:08;;;;;;;48.97;7.95;;;12.20;99.90;;;;;;5031543;28;20049;-76
2023/11/19 07:07:35;;;;;;;41.28;6.68;;;12.20;99.90;;;;;;5031348;28;20017;-76
2023/11/19 07:10:01;;;;;;;47.83;6.55;;;12.20;99.90;;;;;;5031561;28;20390;-77
2023/11/19 07:12:27;;;;;;;37.90;7.43;;;12.20;99.90;;;;;;5049286;28;20059;-76
2023/11/19 07:14:54;;;;;;;33.65;6.10;;;12.20;99.90;;;;;;5031562;28;20064;-76
2023/11/19 07:17:20;;;;;;;42.95;6.55;;;12.10;99.90;;;;;;5048152;28;20041;-76
2023/11/19 07:19:52;;;;;;;58.38;9.25;;;12.10;99.90;;;;;;5049576;28;20494;-76
2023/11/19 07:22:18;;;;;;;31.65;6.57;;;12.10;99.90;;;;;;5046717;28;20036;-76
2023/11/19 07:24:43;;;;;;;43.38;7.15;;;12.10;99.90;;;;;;5048809;28;20033;-77
2023/11/19 07:27:09;;;;;;;42.28;6.80;;;12.10;99.90;;;;;;5030781;28;20017;-77
2023/11/19 07:29:38;;;;;;;46.53;8.25;;;12.10;99.90;;;;;;5047922;28;20123;-77
2023/11/19 07:32:04;;;;;;;52.25;7.80;;;12.10;99.90;;;;;;5048430;28;20033;-76
2023/11/19 07:34:30;;;;;;;43.72;6.45;;;12.10;99.90;;;;;;5021302;28;20493;-76
2023/11/19 07:36:59;;;;;;;38.25;6.93;;;12.10;99.90;;;;;;5053955;28;20045;-76
2023/11/19 07:39:25;;;;;;;40.95;6.82;;;12.10;99.90;;;;;;5052283;28;20028;-77
2023/11/19 07:41:50;;;;;;;36.05;6.80;;;12.10;99.90;;;;;;5079728;28;20035;-76
2023/11/19 07:44:16;;;;;;;49.50;8.52;;;12.10;99.90;;;;;;5086484;28;20095;-76
2023/11/19 07:46:42;;;;;;;40.95;6.30;;;12.10;99.90;;;;;;5085991;28;20571;-76
2023/11/19 07:49:09;;;;;;;40.78;7.05;;;12.20;99.90;;;;;;5062999;28;20140;-76
2023/11/19 07:51:35;;;;;;;41.45;7.78;;;12.20;99.90;;;;;;5083764;28;20098;-76
2023/11/19 07:54:08;;;;;;;39.35;7.70;;;12.20;99.90;;;;;;5070644;28;20136;-76
2023/11/19 07:56:35;;;;;;;52.40;8.07;;;12.20;99.90;;;;;;5074380;28;20111;-76
2023/11/19 07:59:01;;;;;;;34.63;6.80;;;12.20;99.90;;;;;;5046997;28;20029;-76
2023/11/19 08:01:27;;;;;;;46.17;7.85;;;12.20;99.90;;;;;;5068421;28;20028;-76
2023/11/19 08:03:53;;;;;;;53.00;8.82;;;12.30;99.90;;;;;;5074544;28;20568;-76
2023/11/19 08:06:19;;;;;;;42.13;7.70;;;12.30;99.90;;;;;;5078989;28;20040;-76
2023/11/19 08:08:45;;;;;;;45.33;8.13;;;12.30;99.90;;;;;;5068431;28;20016;-77
2023/11/19 08:11:10;;;;;;;38.45;7.22;;;12.30;99.90;;;;;;5058965;28;20032;-76
2023/11/19 08:13:36;;;;;;;33.53;5.88;;;12.30;99.90;;;;;;5074196;28;20028;-76
2023/11/19 08:16:02;;;;;;;49.78;8.52;;;12.30;99.90;;;;;;5080063;28;20589;-76
2023/11/19 08:18:27;;;;;;;40.13;6.57;;;12.40;99.90;;;;;;5082359;28;20081;-76
2023/11/19 08:20:53;;;;;;;42.22;7.25;;;12.40;99.90;;;;;;5074806;28;20397;-76
2023/11/19 08:23:20;;;;;;;47.17;8.40;;;12.40;99.90;;;;;;5075941;28;20460;-75
2023/11/19 08:25:46;;;;;;;39.22;7.72;;;12.50;99.90;;;;;;5082072;28;20024;-76
2023/11/19 08:28:12;;;;;;;45.65;7.22;;;12.50;99.90;;;;;;5046098;28;20025;-75
2023/11/19 08:30:38;;;;;;;46.53;7.57;;;12.50;99.90;;;;;;5070315;28;20035;-75
2023/11/19 08:33:06;;;;;;;40.88;7.70;;;12.60;99.90;;;;;;5076060;28;20024;-77
2023/11/19 08:35:32;;;;;;;40.88;7.68;;;12.60;99.90;;;;;;5072550;28;20494;-76
2023/11/19 08:37:59;;;;;;;44.00;8.48;;;12.60;99.90;;;;;;5077786;28;20082;-76
2023/11/19 08:40:25;;;;;;;37.95;6.55;;;12.70;99.90;;;;;;5049335;28;20111;-77
2023/11/19 08:42:51;;;;;;;40.63;7.30;;;12.70;99.90;;;;;;5067292;28;20033;-76
2023/11/19 08:45:17;;;;;;;41.90;7.07;;;12.70;99.90;;;;;;5066757;28;20095;-76
2023/11/19 08:47:45;;;;;;;46.88;7.47;;;12.70;99.90;;;;;;5080044;28;20020;-76
2023/11/19 08:50:11;;;;;;;44.10;8.00;;;12.70;99.90;;;;;;5058979;28;20046;-76
2023/11/19 08:52:36;;;;;;;41.70;8.13;;;12.70;99.90;;;;;;5060838;28;20484;-76
2023/11/19 08:55:03;;;;;;;46.50;7.95;;;12.70;99.90;;;;;;5067572;28;20526;-76
2023/11/19 08:57:28;;;;;;;33.63;6.90;;;12.70;99.90;;;;;;5074674;28;20036;-76
2023/11/19 08:59:54;;;;;;;44.33;7.82;;;12.80;99.90;;;;;;5056329;28;20021;-76
2023/11/19 09:02:19;;;;;;;37.85;7.43;;;12.80;99.90;;;;;;5072392;28;20027;-76
2023/11/19 09:04:45;;;;;;;34.95;7.60;;;12.80;99.90;;;;;;5075718;28;20103;-76
2023/11/19 09:07:11;;;;;;;45.55;9.50;;;12.80;99.90;;;;;;5049147;28;20020;-76
2023/11/19 09:09:37;;;;;;;43.28;8.75;;;12.90;99.90;;;;;;5066856;28;20036;-75
2023/11/19 09:12:03;;;;;;;37.00;8.13;;;12.90;99.90;;;;;;5077660;28;20823;-75
2023/11/19 09:14:30;;;;;;;31.70;9.23;;;12.90;99.90;;;;;;5076090;28;20820;-76
2023/11/19 09:16:56;;;;;;;36.05;8.70;;;12.90;99.90;;;;;;5054356;28;20024;-75
2023/11/19 09:19:21;;;;;;;49.50;8.50;;;12.90;99.90;;;;;;5074479;28;20028;-76
2023/11/19 09:21:48;;;;;;;44.88;9.40;;;12.90;99.90;;;;;;5069835;28;20032;-76
2023/11/19 09:24:15;;;;;;;41.75;10.23;;;12.90;99.90;;;;;;5058254;28;20164;-75
2023/11/19 09:26:41;;;;;;;35.38;8.10;;;13.00;99.90;;;;;;5048004;28;20086;-75
2023/11/19 09:29:08;;;;;;;44.08;8.93;;;13.00;99.90;;;;;;5062884;28;20111;-75
2023/11/19 09:31:34;;;;;;;40.05;9.38;;;13.00;99.90;;;;;;5076881;28;20032;-75
2023/11/19 09:34:00;;;;;;;39.75;8.25;;;13.00;99.90;;;;;;5072900;28;20020;-76
2023/11/19 09:36:26;;;;;;;40.25;8.20;;;13.00;99.90;;;;;;5078182;28;20039;-76
2023/11/19 09:38:52;;;;;;;48.05;10.45;;;13.00;99.90;;;;;;5081099;28;20051;-76
2023/11/19 09:41:19;;;;;;;35.33;8.25;;;13.00;99.90;;;;;;5066524;28;20024;-75
2023/11/19 09:43:45;;;;;;;48.78;8.15;;;13.00;99.90;;;;;;5048619;28;20078;-75
2023/11/19 09:46:13;;;;;;;38.25;7.68;;;13.10;99.90;;;;;;5065161;28;20031;-75
2023/11/19 09:48:42;;;;;;;45.25;8.20;;;13.10;99.90;;;;;;5072693;28;20104;-76
2023/11/19 09:51:10;;;;;;;39.83;8.05;;;13.20;99.90;;;;;;5048276;28;20113;-75
2023/11/19 09:53:36;;;;;;;40.35;8.82;;;13.20;99.90;;;;;;5048059;28;20025;-76
2023/11/19 09:56:04;;;;;;;40.78;7.90;;;13.20;99.90;;;;;;5066035;28;20573;-75
2023/11/19 09:58:31;;;;;;;40.40;10.40;;;13.20;99.90;;;;;;5071657;28;20020;-75
2023/11/19 10:01:00;;;;;;;42.70;8.10;;;13.30;99.90;;;;;;5066290;28;20021;-75
2023/11/19 10:03:28;;;;;;;42.15;9.65;;;13.30;99.90;;;;;;5068115;28;20024;-75
2023/11/19 10:05:57;;;;;;;41.03;10.02;;;13.30;99.90;;;;;;5052218;28;20048;-76
2023/11/19 10:08:23;;;;;;;38.42;9.40;;;13.40;99.90;;;;;;5067437;28;20031;-75
2023/11/19 10:10:49;;;;;;;41.92;7.95;;;13.50;99.90;;;;;;5079232;28;20515;-75
2023/11/19 10:13:14;;;;;;;41.58;7.10;;;13.50;99.90;;;;;;5065853;28;20512;-75
2023/11/19 10:15:41;;;;;;;43.45;8.52;;;13.50;99.90;;;;;;5080147;28;20017;-76
2023/11/19 10:18:07;;;;;;;41.08;7.57;;;13.40;99.90;;;;;;5075633;28;20028;-75
2023/11/19 10:20:36;;;;;;;39.35;7.30;;;13.40;99.90;;;;;;5065965;28;20051;-75
2023/11/19 10:23:02;;;;;;;38.63;7.28;;;13.40;99.90;;;;;;5066110;28;20075;-75
2023/11/19 10:25:29;;;;;;;42.38;7.25;;;13.40;99.90;;;;;;5080405;28;20032;-76
2023/11/19 10:27:56;;;;;;;39.50;8.32;;;13.40;99.90;;;;;;5065549;28;20493;-76
2023/11/19 10:30:26;;;;;;;43.72;7.65;;;13.40;99.90;;;;;;5065843;28;20028;-75
2023/11/19 10:33:17;;;;;;;31.80;6.30;;;13.40;99.90;;;;;;5066242;28;20027;-75
2023/11/19 10:35:53;;;;;;;46.58;8.13;;;13.40;99.90;;;;;;5081253;28;20048;-75
2023/11/19 10:38:19;;;;;;;33.88;6.53;;;13.40;99.90;;;;;;5063867;28;20059;-75
2023/11/19 10:40:44;;;;;;;38.53;7.10;;;13.50;99.90;;;;;;5064680;28;20357;-75
2023/11/19 10:43:10;;;;;;;47.58;7.82;;;13.50;99.90;;;;;;5051056;28;20024;-75
2023/11/19 10:45:37;;;;;;;38.85;7.40;;;13.50;99.90;;;;;;5065247;28;20482;-75
2023/11/19 10:48:06;;;;;;;35.55;7.43;;;13.50;99.90;;;;;;5065781;28;20016;-76
2023/11/19 10:50:37;;;;;;;37.30;7.30;;;13.50;99.90;;;;;;5066003;28;20029;-76
2023/11/19 10:53:04;;;;;;;32.88;6.28;;;13.60;99.90;;;;;;5064454;28;20021;-76
2023/11/19 10:55:38;;;;;;;32.63;6.80;;;13.80;99.90;;;;;;5065756;28;20589;-75
2023/11/19 10:58:19;;;;;;;39.85;6.03;;;13.80;99.90;;;;;;5046473;28;20025;-76
2023/11/19 11:00:55;;;;;;;36.30;5.93;;;13.90;99.90;;;;;;5068167;28;20025;-75
2023/11/19 11:03:24;;;;;;;40.85;6.85;;;13.90;99.90;;;;;;5064870;28;20037;-75
2023/11/19 11:05:52;;;;;;;30.77;6.32;;;14.10;99.90;;;;;;5066767;28;20027;-76
2023/11/19 11:08:19;;;;;;;41.50;7.50;;;14.10;99.90;;;;;;5085705;28;20012;-76
2023/11/19 11:10:53;;;;;;;40.47;7.53;;;14.20;99.90;;;;;;5086658;28;20031;-76
2023/11/19 11:13:19;;;;;;;32.85;5.93;;;14.30;99.90;;;;;;5073697;28;20016;-76
2023/11/19 11:15:46;;;;;;;33.70;6.35;;;14.30;99.90;;;;;;5071983;28;20140;-75
2023/11/19 11:18:13;;;;;;;30.55;6.03;;;14.30;99.90;;;;;;5071991;28;20025;-76
2023/11/19 11:20:39;;;;;;;35.83;6.85;;;14.30;99.90;;;;;;5056643;28;20021;-77
2023/11/19 11:23:32;;;;;;;26.40;4.97;;;14.30;99.90;;;;;;5075007;28;20033;-76
2023/11/19 11:26:04;;;;;;;32.80;6.75;;;14.30;99.90;;;;;;5044356;28;20028;-75
2023/11/19 11:28:38;;;;;;;30.13;5.35;;;14.40;99.90;;;;;;5075362;28;20027;-75
2023/11/19 11:31:16;;;;;;;35.50;6.47;;;14.40;99.90;;;;;;5056238;28;20158;-76
2023/11/19 11:34:11;;;;;;;31.73;6.10;;;14.30;99.90;;;;;;5069153;28;20492;-76
2023/11/19 11:36:56;;;;;;;36.40;6.88;;;14.30;99.90;;;;;;5046238;28;20075;-75
2023/11/19 11:39:24;;;;;;;42.15;7.00;;;14.30;99.90;;;;;;5063520;28;20107;-75
2023/11/19 11:42:22;;;;;;;32.30;7.22;;;14.30;99.90;;;;;;5070313;28;20385;-75
2023/11/19 11:45:11;;;;;;;29.23;5.65;;;14.30;99.90;;;;;;5074463;28;20044;-76
2023/11/19 11:47:43;;;;;;;30.88;6.80;;;14.30;99.90;;;;;;5060287;28;20029;-75
2023/11/19 11:50:18;;;;;;;38.08;6.88;;;14.30;99.90;;;;;;5063449;28;20124;-75
2023/11/19 11:52:56;;;;;;;34.42;7.45;;;14.30;99.90;;;;;;5061853;28;20370;-75
2023/11/19 11:55:47;;;;;;;28.00;6.10;;;14.20;99.90;;;;;;5080313;28;20489;-75
2023/11/19 11:58:14;;;;;;;29.25;6.05;;;14.20;99.90;;;;;;5050676;28;20047;-76
2023/11/19 12:00:41;;;;;;;31.45;6.60;;;14.10;99.90;;;;;;5050445;28;20028;-76
2023/11/19 12:03:08;;;;;;;36.80;8.13;;;14.10;99.90;;;;;;5065343;28;20026;-75
2023/11/19 12:05:43;;;;;;;43.47;7.60;;;14.10;99.90;;;;;;5060985;28;20052;-75
2023/11/19 12:08:11;;;;;;;30.05;6.63;;;14.10;99.90;;;;;;5046797;28;20028;-74
2023/11/19 12:10:49;;;;;;;39.85;7.03;;;14.10;99.90;;;;;;5041210;28;20320;-75
2023/11/19 12:13:15;;;;;;;40.47;7.13;;;14.00;99.90;;;;;;5073860;28;20095;-75
2023/11/19 12:16:08;;;;;;;35.88;6.72;;;14.00;99.90;;;;;;5066915;28;20021;-75
2023/11/19 12:18:33;;;;;;;27.17;5.47;;;14.00;99.90;;;;;;5067478;28;20030;-75
2023/11/19 12:21:00;;;;;;;24.23;5.47;;;14.00;99.90;;;;;;5054716;28;20033;-75
2023/11/19 12:23:32;;;;;;;35.45;5.45;;;14.00;99.90;;;;;;5075487;28;20020;-75
2023/11/19 12:25:58;;;;;;;27.13;5.35;;;14.20;99.90;;;;;;5062171;28;20470;-76
2023/11/19 12:28:26;;;;;;;25.42;4.88;;;14.30;99.90;;;;;;5066171;28;20036;-76
2023/11/19 12:30:53;;;;;;;28.77;5.70;;;14.40;99.90;;;;;;5049880;28;20022;-76
2023/11/19 12:33:19;;;;;;;28.20;5.45;;;14.60;99.90;;;;;;5050745;28;20021;-75
2023/11/19 12:35:49;;;;;;;23.48;4.85;;;14.60;99.90;;;;;;5067918;28;20032;-75
2023/11/19 12:38:25;;;;;;;25.35;4.70;;;14.70;99.90;;;;;;5056314;28;20047;-75